Loveland, Ohio
Current Conditions -  °F | °C
As of 11:04 PM on Thursday 27 Nov 2014 (Local Time) from KLUK Reporting Station
Overcast Overcast  
Wind Chill: 21°   Ceiling: 2900
Heat Index: 29°   Visibility: 10mi
Dew Point: 18°   Wind: 8mph
Humidity: 64%   Direction: 260°W
Pressure: 30.42"   Gusts: NA
Location:  39.27°N, 84.26°W
Report Text: KLUK 280404Z AUTO 26007KT 10SM OVC029 M02/M08 A3042 RMK AO2 T10171078
Loading
Personal Weather Stations






























Interactive Weather Map New forecast layout! Learn more

10-Day Weather Forecast

Advertisements
Track Severe Weather on mobile